Portada
METAR-TAF:

METAR-TAF

Aeropuertos :

Aeropuerto de Basilea-Mulhouse-Friburgo

Basilea-Mulhouse, Francia

latitud: 47-36N, longitud: 007-31E, altitud: 270 m

Observación

El informe se hizo hace 34 minutos, a las 11:30 UTC
Viento 6 kt del norte, variando entre oeste-noroeste y noreste
Temperatura 14°C
Humedad 44%
Presión 1022 hPa
Visibilidad 10 km o más
sin nubes por debajo de 1500 m y sin presencia de cumulonimbus.

METAR: LFSB 041130Z AUTO 35006KT 300V040 CAVOK 14/02 Q1022 NOSIG

Hora: 14:04 (12:04 UTC)

Pronóstico

El informe se hizo hace 1 hora y 0 minutos, a las 11:04 UTC
Pronóstico válido del 04 a las 12 UTC al 05 a las 12 UTC
Viento 5 kt del norte
Visibilidad 10 km o más
sin nubes por debajo de 1500 m y sin presencia de cumulonimbus.
Probabilidad 30% :
Temporalmente
del 05 a las 03 UTC al 05 a las 06 UTC
Viento 1 kt con dirección variable
Visibilidad: 5000 m
Niebla baja

TAF: LFSB 041104Z 0412/0512 36005KT CAVOK PROB30 TEMPO 0503/0506 VRB01KT 5000 MIFG

Observaciones y pronósticos meteorológicos de más de 4000 aeropuertos (mensajes METAR y TAF).

Los puntos amarillos y rojos representan las estaciones disponibles.

Ponga el ratón en el punto deseado para ver el nombre de la estación.

Haga clic para ver las observaciones y los pronósticos meteorológicos.

Para cambiar el mapa : haga clic en los botones verdes con una cruz de color negro para hacer un zoom, en el botón verde con un guión para alejar o en las flechas verdes para mapas adyacentes.


METAR-TAF: